Time;durP1;ratioP1;P1;durP2;ratioP2;P2;SDS_P1;SDS_P2;PMS_P1;PMS_P2;Temp;Humidity;BMP_temperature;BMP_pressure;BME280_temperature;BME280_humidity;BME280_pressure;Samples;Min_cycle;Max_cycle;Signal;HPM_P1;HPM_P2
2022/11/14 00:00:45;;;;;;;29.35;19.73;;;;;;;;;;4993873;28;92742;-79
2022/11/14 00:03:30;;;;;;;28.35;20.50;;;;;;;;;;4992431;28;92508;-79
2022/11/14 00:06:15;;;;;;;27.67;21.20;;;;;;;;;;4977816;28;92522;-81
2022/11/14 00:09:00;;;;;;;29.63;21.85;;;;;;;;;;4991543;28;91598;-80
2022/11/14 00:11:45;;;;;;;29.77;21.35;;;;;;;;;;4993260;28;92296;-80
2022/11/14 00:14:30;;;;;;;34.13;22.85;;;;;;;;;;4994975;28;93042;-80
2022/11/14 00:17:15;;;;;;;32.17;24.35;;;;;;;;;;4990983;28;94883;-80
2022/11/14 00:20:00;;;;;;;34.83;24.10;;;;;;;;;;4994274;28;94874;-80
2022/11/14 00:22:45;;;;;;;30.75;23.02;;;;;;;;;;4982304;28;92695;-79
2022/11/14 00:25:30;;;;;;;33.80;24.92;;;;;;;;;;4991372;28;92847;-80
2022/11/14 00:28:15;;;;;;;37.08;25.80;;;;;;;;;;4993077;28;92891;-80
2022/11/14 00:31:00;;;;;;;33.88;24.42;;;;;;;;;;4993999;28;92921;-79
2022/11/14 00:33:45;;;;;;;37.63;26.75;;;;;;;;;;4995900;28;92401;-79
2022/11/14 00:36:29;;;;;;;37.15;24.48;;;;;;;;;;4993164;28;91936;-80
2022/11/14 00:39:14;;;;;;;38.72;26.10;;;;;;;;;;4994128;28;92620;-80
2022/11/14 00:41:59;;;;;;;34.83;25.73;;;;;;;;;;4994453;28;92466;-79
2022/11/14 00:44:44;;;;;;;38.55;27.75;;;;;;;;;;4991605;28;95013;-79
2022/11/14 00:47:28;;;;;;;37.10;28.42;;;;;;;;;;4993824;28;92338;-79
2022/11/14 00:50:14;;;;;;;41.97;29.05;;;;;;;;;;4995365;28;92430;-80
2022/11/14 00:52:59;;;;;;;42.97;29.15;;;;;;;;;;4992266;28;92674;-79
2022/11/14 00:55:44;;;;;;;37.33;28.02;;;;;;;;;;4994457;28;92745;-82
2022/11/14 00:58:29;;;;;;;38.90;27.33;;;;;;;;;;4997014;28;92348;-80
2022/11/14 01:01:14;;;;;;;42.42;30.00;;;;;;;;;;4992165;28;92344;-80
2022/11/14 01:04:01;;;;;;;41.38;27.80;;;;;;;;;;4994022;28;92441;-80
2022/11/14 01:06:46;;;;;;;45.60;29.83;;;;;;;;;;4993549;28;92760;-80
2022/11/14 01:09:31;;;;;;;45.95;31.15;;;;;;;;;;4992786;28;92440;-81
2022/11/14 01:12:16;;;;;;;48.25;32.00;;;;;;;;;;4991632;28;95466;-80
2022/11/14 01:15:01;;;;;;;52.75;30.13;;;;;;;;;;4993712;28;92755;-81
2022/11/14 01:17:45;;;;;;;47.03;31.92;;;;;;;;;;4992936;28;92578;-81
2022/11/14 01:20:30;;;;;;;50.15;32.58;;;;;;;;;;4991628;28;95352;-80
2022/11/14 01:23:18;;;;;;;52.75;33.28;;;;;;;;;;4997566;28;92675;-81
2022/11/14 01:26:04;;;;;;;46.08;30.88;;;;;;;;;;4992494;28;92926;-81
2022/11/14 01:28:49;;;;;;;53.92;34.45;;;;;;;;;;4991994;28;92813;-81
2022/11/14 01:31:33;;;;;;;58.00;36.28;;;;;;;;;;4996982;28;91946;-80
2022/11/14 01:34:18;;;;;;;53.70;34.42;;;;;;;;;;4995769;28;92839;-80
2022/11/14 01:37:03;;;;;;;54.10;33.33;;;;;;;;;;4992517;28;92728;-80
2022/11/14 01:39:48;;;;;;;56.45;34.60;;;;;;;;;;4976806;28;94876;-80
2022/11/14 01:42:33;;;;;;;61.70;36.72;;;;;;;;;;4987765;28;94987;-80
2022/11/14 01:45:36;;;;;;;51.90;33.00;;;;;;;;;;4996727;28;92678;-80
2022/11/14 01:48:28;;;;;;;47.83;34.13;;;;;;;;;;4999308;28;92448;-80
2022/11/14 01:51:37;;;;;;;51.60;34.00;;;;;;;;;;4995789;28;92666;-80
2022/11/14 01:54:26;;;;;;;53.92;34.15;;;;;;;;;;4977105;28;92324;-81
2022/11/14 01:57:13;;;;;;;59.45;35.40;;;;;;;;;;4974805;28;92557;-81
2022/11/14 01:59:59;;;;;;;56.60;35.47;;;;;;;;;;4976777;28;91924;-81
2022/11/14 02:02:45;;;;;;;57.65;35.25;;;;;;;;;;4975890;28;92445;-80
2022/11/14 02:05:30;;;;;;;56.25;35.42;;;;;;;;;;4975296;28;92523;-80
2022/11/14 02:08:16;;;;;;;60.97;34.50;;;;;;;;;;4990726;28;95581;-81
2022/11/14 02:11:01;;;;;;;55.90;34.33;;;;;;;;;;4996720;28;92800;-81
2022/11/14 02:13:46;;;;;;;63.85;35.88;;;;;;;;;;4978523;28;92477;-81
2022/11/14 02:16:31;;;;;;;57.70;32.92;;;;;;;;;;4975175;28;92895;-80
2022/11/14 02:19:16;;;;;;;64.75;37.90;;;;;;;;;;4977195;28;92510;-80
2022/11/14 02:22:01;;;;;;;54.60;33.92;;;;;;;;;;4975060;28;92566;-81
2022/11/14 02:24:46;;;;;;;64.80;37.20;;;;;;;;;;4987310;28;93255;-81
2022/11/14 02:27:31;;;;;;;54.28;34.42;;;;;;;;;;4994707;28;92488;-81
2022/11/14 02:30:19;;;;;;;59.00;36.60;;;;;;;;;;4993780;28;92593;-80
2022/11/14 02:33:04;;;;;;;64.65;38.88;;;;;;;;;;4995643;28;92495;-80
2022/11/14 02:35:56;;;;;;;62.78;38.83;;;;;;;;;;4998059;28;94657;-80
2022/11/14 02:38:41;;;;;;;60.35;36.03;;;;;;;;;;4993519;28;92512;-80
2022/11/14 02:41:26;;;;;;;71.40;39.72;;;;;;;;;;4993947;28;92491;-80
2022/11/14 02:44:10;;;;;;;65.45;36.95;;;;;;;;;;4995913;28;92683;-81
2022/11/14 02:46:55;;;;;;;70.95;40.30;;;;;;;;;;4996793;28;92433;-81
2022/11/14 02:49:40;;;;;;;65.55;39.53;;;;;;;;;;4993859;28;92448;-81
2022/11/14 02:52:25;;;;;;;71.38;39.72;;;;;;;;;;4994317;28;92634;-80
2022/11/14 02:55:09;;;;;;;65.72;39.47;;;;;;;;;;4997369;28;91663;-79
2022/11/14 02:57:54;;;;;;;69.45;38.63;;;;;;;;;;4994496;28;92606;-80
2022/11/14 03:00:39;;;;;;;67.80;38.38;;;;;;;;;;4997741;28;92725;-80
2022/11/14 03:03:44;;;;;;;73.82;38.08;;;;;;;;;;4992438;28;94784;-80
2022/11/14 03:06:29;;;;;;;70.25;38.63;;;;;;;;;;4994312;28;92677;-80
2022/11/14 03:09:13;;;;;;;74.38;40.63;;;;;;;;;;4995583;28;92427;-80
2022/11/14 03:11:58;;;;;;;76.68;39.40;;;;;;;;;;4995997;28;92496;-80
2022/11/14 03:14:43;;;;;;;74.55;40.60;;;;;;;;;;4994458;28;92767;-80
2022/11/14 03:17:32;;;;;;;77.18;39.97;;;;;;;;;;4995474;28;92463;-80
2022/11/14 03:20:17;;;;;;;73.45;38.83;;;;;;;;;;4995212;28;92503;-80
2022/11/14 03:23:02;;;;;;;66.20;38.55;;;;;;;;;;4994044;28;91951;-80
2022/11/14 03:25:47;;;;;;;81.97;41.05;;;;;;;;;;4995671;28;92391;-80
2022/11/14 03:28:31;;;;;;;72.68;39.17;;;;;;;;;;4992232;28;92680;-80
2022/11/14 03:31:17;;;;;;;76.60;40.50;;;;;;;;;;4994382;28;94736;-80
2022/11/14 03:34:02;;;;;;;73.45;38.90;;;;;;;;;;4974693;28;93862;-80
2022/11/14 03:36:47;;;;;;;79.85;41.60;;;;;;;;;;4975963;28;92955;-80
2022/11/14 03:39:32;;;;;;;75.40;38.90;;;;;;;;;;4974281;28;92313;-80
2022/11/14 03:42:18;;;;;;;74.95;40.40;;;;;;;;;;4989519;28;92806;-80
2022/11/14 03:45:04;;;;;;;83.32;42.20;;;;;;;;;;4975396;28;92832;-80
2022/11/14 03:47:49;;;;;;;87.30;41.90;;;;;;;;;;4973307;28;92421;-79
2022/11/14 03:50:34;;;;;;;79.35;41.35;;;;;;;;;;4982869;28;92502;-80
2022/11/14 03:53:19;;;;;;;75.63;41.42;;;;;;;;;;4995345;28;92583;-79
2022/11/14 03:56:05;;;;;;;80.70;41.20;;;;;;;;;;4993573;28;92502;-79
2022/11/14 03:58:49;;;;;;;79.35;42.15;;;;;;;;;;4993403;28;94706;-79
2022/11/14 04:01:34;;;;;;;80.40;40.50;;;;;;;;;;4994490;28;92344;-79
2022/11/14 04:04:19;;;;;;;88.97;44.10;;;;;;;;;;4993329;28;92531;-79
2022/11/14 04:07:05;;;;;;;82.85;41.33;;;;;;;;;;4993946;28;93144;-80
2022/11/14 04:09:50;;;;;;;86.72;42.20;;;;;;;;;;4994908;28;93023;-81
2022/11/14 04:12:35;;;;;;;91.38;41.72;;;;;;;;;;4992825;28;92640;-81
2022/11/14 04:15:20;;;;;;;88.88;42.92;;;;;;;;;;4997207;28;92682;-81
2022/11/14 04:18:05;;;;;;;88.95;42.60;;;;;;;;;;4994507;28;92488;-81
2022/11/14 04:20:50;;;;;;;84.32;40.42;;;;;;;;;;4993031;28;92724;-80
2022/11/14 04:23:35;;;;;;;90.43;43.80;;;;;;;;;;4992322;28;92657;-80
2022/11/14 04:26:20;;;;;;;83.47;41.63;;;;;;;;;;4992304;28;94768;-80
2022/11/14 04:29:04;;;;;;;86.50;42.35;;;;;;;;;;4995186;28;92658;-80
2022/11/14 04:31:49;;;;;;;87.57;41.33;;;;;;;;;;4993004;28;92562;-79
2022/11/14 04:34:34;;;;;;;79.43;40.92;;;;;;;;;;4994421;28;92503;-80
2022/11/14 04:37:19;;;;;;;84.53;39.72;;;;;;;;;;4994489;28;92669;-80
2022/11/14 04:40:04;;;;;;;85.00;39.88;;;;;;;;;;4996034;28;92327;-80
2022/11/14 04:42:49;;;;;;;89.53;42.60;;;;;;;;;;4990225;28;92682;-79
2022/11/14 04:45:34;;;;;;;81.63;41.08;;;;;;;;;;4974514;28;92596;-80
2022/11/14 04:48:18;;;;;;;84.72;40.90;;;;;;;;;;4972675;28;92465;-80
2022/11/14 04:51:03;;;;;;;86.95;41.00;;;;;;;;;;4973245;28;92470;-80
2022/11/14 04:53:48;;;;;;;85.50;39.40;;;;;;;;;;4973184;28;95627;-80
2022/11/14 04:56:33;;;;;;;84.57;39.28;;;;;;;;;;4974475;28;94872;-79
2022/11/14 04:59:17;;;;;;;83.03;38.53;;;;;;;;;;4991493;28;92461;-79
2022/11/14 05:02:05;;;;;;;76.40;38.22;;;;;;;;;;4979004;28;92398;-79
2022/11/14 05:04:49;;;;;;;81.55;39.60;;;;;;;;;;4972709;28;92693;-80
2022/11/14 05:07:34;;;;;;;88.60;38.33;;;;;;;;;;4976925;28;92405;-80
2022/11/14 05:10:19;;;;;;;82.47;39.38;;;;;;;;;;4996064;28;92450;-80
2022/11/14 05:13:04;;;;;;;71.85;36.80;;;;;;;;;;4995734;28;91942;-79
2022/11/14 05:15:49;;;;;;;82.70;37.38;;;;;;;;;;4977245;28;92473;-79
2022/11/14 05:18:34;;;;;;;83.38;38.25;;;;;;;;;;4977310;28;92351;-79
2022/11/14 05:21:19;;;;;;;80.88;38.78;;;;;;;;;;4976806;28;95060;-80
2022/11/14 05:24:03;;;;;;;84.80;38.72;;;;;;;;;;4996778;28;92362;-79
2022/11/14 05:26:48;;;;;;;84.13;39.10;;;;;;;;;;4979806;28;92544;-79
2022/11/14 05:29:33;;;;;;;81.57;38.00;;;;;;;;;;4975282;28;92374;-80
2022/11/14 05:32:18;;;;;;;74.32;35.63;;;;;;;;;;4993513;28;92607;-80
2022/11/14 05:35:03;;;;;;;68.53;35.95;;;;;;;;;;4996854;28;92821;-80
2022/11/14 05:37:48;;;;;;;71.10;36.47;;;;;;;;;;4998036;28;93320;-81
2022/11/14 05:40:36;;;;;;;79.80;37.90;;;;;;;;;;4995701;28;92480;-80
2022/11/14 05:43:20;;;;;;;71.40;35.45;;;;;;;;;;4996398;28;92509;-80
2022/11/14 05:46:06;;;;;;;80.25;36.92;;;;;;;;;;4997104;28;92513;-79
2022/11/14 05:48:51;;;;;;;72.75;35.55;;;;;;;;;;4993138;28;94925;-79
2022/11/14 05:51:36;;;;;;;72.05;35.70;;;;;;;;;;4999457;28;92741;-79
2022/11/14 05:54:20;;;;;;;74.88;34.78;;;;;;;;;;4996145;28;93728;-79
2022/11/14 05:57:05;;;;;;;79.72;37.38;;;;;;;;;;4996058;28;92334;-79
2022/11/14 05:59:50;;;;;;;74.53;37.15;;;;;;;;;;4996775;28;92470;-79
2022/11/14 06:02:34;;;;;;;67.38;35.75;;;;;;;;;;4996221;28;92499;-79
2022/11/14 06:05:20;;;;;;;76.88;36.20;;;;;;;;;;4995212;28;92638;-79
2022/11/14 06:08:05;;;;;;;69.78;34.30;;;;;;;;;;4996540;28;91613;-79
2022/11/14 06:10:50;;;;;;;63.78;34.60;;;;;;;;;;4996845;28;92395;-79
2022/11/14 06:13:35;;;;;;;66.97;33.50;;;;;;;;;;4995342;28;92576;-79
2022/11/14 06:16:20;;;;;;;69.72;34.03;;;;;;;;;;4997108;28;95318;-80
2022/11/14 06:19:05;;;;;;;66.03;31.55;;;;;;;;;;4997458;28;92674;-79
2022/11/14 06:21:50;;;;;;;68.55;36.08;;;;;;;;;;4996344;28;92549;-79
2022/11/14 06:24:35;;;;;;;59.55;31.23;;;;;;;;;;4994465;28;93089;-79
2022/11/14 06:27:19;;;;;;;61.38;31.77;;;;;;;;;;4996577;28;93170;-79
2022/11/14 06:30:04;;;;;;;62.38;33.00;;;;;;;;;;4994098;28;92550;-79
2022/11/14 06:32:55;;;;;;;65.40;32.65;;;;;;;;;;4995981;28;92577;-79
2022/11/14 06:35:39;;;;;;;67.60;33.72;;;;;;;;;;4996412;28;91711;-79
2022/11/14 06:38:24;;;;;;;59.65;33.28;;;;;;;;;;4993551;28;92282;-79
2022/11/14 06:41:11;;;;;;;70.15;33.85;;;;;;;;;;4997512;28;92453;-79
2022/11/14 06:43:55;;;;;;;63.17;32.45;;;;;;;;;;4986301;28;94883;-79
2022/11/14 06:46:40;;;;;;;57.45;33.10;;;;;;;;;;4989777;28;94870;-79
2022/11/14 06:49:26;;;;;;;70.63;32.15;;;;;;;;;;4990234;28;92563;-80
2022/11/14 06:52:11;;;;;;;67.80;31.58;;;;;;;;;;4993928;28;92407;-79
2022/11/14 06:54:56;;;;;;;64.05;31.67;;;;;;;;;;4994755;28;92495;-79
2022/11/14 06:57:40;;;;;;;59.15;31.15;;;;;;;;;;4992837;28;94215;-78
2022/11/14 07:00:25;;;;;;;62.60;33.00;;;;;;;;;;4991110;28;92518;-82
2022/11/14 07:03:10;;;;;;;67.10;31.45;;;;;;;;;;4996800;28;92427;-78
2022/11/14 07:05:59;;;;;;;62.95;31.52;;;;;;;;;;4991551;28;93886;-79
2022/11/14 07:08:44;;;;;;;60.65;32.65;;;;;;;;;;4994443;28;92467;-80
2022/11/14 07:11:30;;;;;;;55.35;31.00;;;;;;;;;;4990321;28;95008;-80
2022/11/14 07:14:17;;;;;;;60.25;30.48;;;;;;;;;;4995266;28;92295;-80
2022/11/14 07:17:02;;;;;;;59.42;30.33;;;;;;;;;;4995976;28;92518;-81
2022/11/14 07:19:47;;;;;;;61.42;29.70;;;;;;;;;;4995429;28;92981;-81
2022/11/14 07:22:31;;;;;;;61.63;30.35;;;;;;;;;;4991657;28;93557;-80
2022/11/14 07:25:21;;;;;;;58.17;29.25;;;;;;;;;;4985123;28;92790;-78
2022/11/14 07:28:06;;;;;;;60.33;31.10;;;;;;;;;;4998756;28;93924;-78
2022/11/14 07:30:51;;;;;;;54.05;30.10;;;;;;;;;;4995215;28;92602;-79
2022/11/14 07:33:36;;;;;;;58.30;30.83;;;;;;;;;;4991232;28;92737;-81
2022/11/14 07:36:22;;;;;;;52.92;29.35;;;;;;;;;;4994491;28;92499;-80
2022/11/14 07:39:06;;;;;;;52.05;29.10;;;;;;;;;;4986744;28;95701;-81
2022/11/14 07:41:51;;;;;;;56.50;29.95;;;;;;;;;;4995070;28;92394;-80
2022/11/14 07:44:36;;;;;;;52.25;29.95;;;;;;;;;;4996155;28;92419;-82
2022/11/14 07:47:21;;;;;;;55.05;27.75;;;;;;;;;;4996645;28;92519;-80
2022/11/14 07:50:07;;;;;;;59.28;29.52;;;;;;;;;;4994736;28;92475;-80
2022/11/14 07:52:54;;;;;;;55.60;29.48;;;;;;;;;;4999015;28;92472;-80
2022/11/14 07:55:39;;;;;;;52.88;28.50;;;;;;;;;;4992367;28;92704;-80
2022/11/14 07:58:24;;;;;;;49.58;28.05;;;;;;;;;;4995419;28;91734;-80
2022/11/14 08:01:10;;;;;;;48.42;28.83;;;;;;;;;;4994416;28;94641;-80
2022/11/14 08:03:54;;;;;;;50.03;28.15;;;;;;;;;;4982266;28;92701;-80
2022/11/14 08:06:39;;;;;;;48.55;27.33;;;;;;;;;;4993234;28;94773;-80
2022/11/14 08:09:24;;;;;;;46.40;28.63;;;;;;;;;;4977870;28;93875;-80
2022/11/14 08:12:09;;;;;;;50.38;27.42;;;;;;;;;;4974301;28;92738;-80
2022/11/14 08:14:54;;;;;;;44.95;27.48;;;;;;;;;;4974004;28;92329;-80
2022/11/14 08:17:40;;;;;;;52.30;28.15;;;;;;;;;;4978102;28;92519;-80
2022/11/14 08:20:26;;;;;;;46.03;26.80;;;;;;;;;;4965093;28;92313;-82
2022/11/14 08:23:12;;;;;;;49.30;25.50;;;;;;;;;;4994088;28;93526;-82
2022/11/14 08:25:58;;;;;;;42.92;23.63;;;;;;;;;;4995945;28;91966;-79
2022/11/14 08:28:43;;;;;;;45.10;27.25;;;;;;;;;;4992982;28;92402;-78
2022/11/14 08:31:28;;;;;;;46.10;24.38;;;;;;;;;;4994063;28;93531;-80
2022/11/14 08:34:13;;;;;;;52.25;28.50;;;;;;;;;;4993853;28;96051;-80
2022/11/14 08:36:59;;;;;;;50.33;26.70;;;;;;;;;;4995471;28;92270;-79
2022/11/14 08:39:44;;;;;;;48.58;25.98;;;;;;;;;;4994774;28;92444;-78
2022/11/14 08:42:29;;;;;;;39.80;25.35;;;;;;;;;;5001317;28;92673;-78
2022/11/14 08:45:13;;;;;;;39.85;23.52;;;;;;;;;;4998348;28;92432;-79
2022/11/14 08:47:59;;;;;;;38.55;24.85;;;;;;;;;;4997060;28;92531;-79
2022/11/14 08:50:46;;;;;;;41.80;24.42;;;;;;;;;;4997430;28;93006;-80
2022/11/14 08:53:32;;;;;;;36.15;24.02;;;;;;;;;;4999506;28;92484;-79
2022/11/14 08:56:18;;;;;;;39.30;24.30;;;;;;;;;;4997100;28;92663;-79
2022/11/14 08:59:03;;;;;;;32.67;22.75;;;;;;;;;;4998040;28;93229;-79
2022/11/14 09:01:48;;;;;;;36.60;23.20;;;;;;;;;;4997380;28;94800;-82
2022/11/14 09:04:33;;;;;;;33.70;22.73;;;;;;;;;;4995803;28;92994;-80
2022/11/14 09:07:18;;;;;;;30.42;21.05;;;;;;;;;;5001610;28;92356;-80
2022/11/14 09:10:03;;;;;;;42.88;22.05;;;;;;;;;;4998760;28;92691;-80
2022/11/14 09:12:53;;;;;;;28.23;19.60;;;;;;;;;;4996514;28;93402;-79
2022/11/14 09:15:39;;;;;;;30.15;22.02;;;;;;;;;;4998692;28;92520;-79
2022/11/14 09:18:24;;;;;;;34.70;22.48;;;;;;;;;;4997848;28;92757;-81
2022/11/14 09:21:09;;;;;;;34.15;22.63;;;;;;;;;;4997499;28;91502;-79
2022/11/14 09:23:54;;;;;;;32.83;21.70;;;;;;;;;;4998552;28;92438;-79
2022/11/14 09:26:49;;;;;;;27.63;19.85;;;;;;;;;;4975779;28;92415;-81
2022/11/14 09:29:40;;;;;;;30.90;21.67;;;;;;;;;;4978813;28;96173;-80
2022/11/14 09:32:25;;;;;;;33.92;21.05;;;;;;;;;;4977747;28;92673;-80
2022/11/14 09:35:11;;;;;;;32.60;19.63;;;;;;;;;;4996765;28;92995;-80
2022/11/14 09:38:08;;;;;;;31.60;21.17;;;;;;;;;;4996907;28;92372;-81
2022/11/14 09:41:20;;;;;;;26.83;19.00;;;;;;;;;;4996998;28;92626;-81
2022/11/14 09:44:08;;;;;;;28.80;19.55;;;;;;;;;;4997847;28;92379;-80
2022/11/14 09:47:00;;;;;;;28.65;16.77;;;;;;;;;;4996546;28;92497;-80
2022/11/14 09:49:46;;;;;;;24.13;18.92;;;;;;;;;;4999024;28;91921;-80
2022/11/14 09:52:38;;;;;;;24.38;17.90;;;;;;;;;;4995767;28;92411;-81
2022/11/14 09:55:30;;;;;;;25.50;17.08;;;;;;;;;;4999518;28;93840;-81
2022/11/14 09:58:22;;;;;;;23.25;16.75;;;;;;;;;;4993829;28;95437;-79
2022/11/14 10:01:16;;;;;;;30.48;19.10;;;;;;;;;;4996227;28;94883;-79
2022/11/14 10:04:01;;;;;;;22.83;17.83;;;;;;;;;;4998161;28;92681;-79
2022/11/14 10:07:24;;;;;;;29.92;18.23;;;;;;;;;;4994599;28;92568;-79
2022/11/14 10:10:25;;;;;;;25.95;17.70;;;;;;;;;;4972041;28;92512;-80
2022/11/14 10:13:16;;;;;;;28.80;18.10;;;;;;;;;;4996167;28;92708;-80
2022/11/14 10:16:33;;;;;;;31.38;18.52;;;;;;;;;;4997771;28;92873;-80
2022/11/14 10:19:24;;;;;;;23.35;16.67;;;;;;;;;;4972117;28;92488;-78
2022/11/14 10:22:28;;;;;;;22.42;16.55;;;;;;;;;;4999172;28;92704;-78
2022/11/14 10:25:13;;;;;;;;;;;;;;;;;;4998514;28;92828;-80
2022/11/14 10:28:23;;;;;;;23.13;17.00;;;;;;;;;;4995212;28;95978;-79
2022/11/14 10:31:20;;;;;;;28.08;15.57;;;;;;;;;;4997371;28;93682;-79
2022/11/14 10:34:08;;;;;;;19.25;15.00;;;;;;;;;;4995388;28;92473;-79
2022/11/14 10:37:14;;;;;;;21.42;14.95;;;;;;;;;;4994970;28;93220;-79
2022/11/14 10:40:20;;;;;;;15.73;13.45;;;;;;;;;;4996044;28;92408;-79
2022/11/14 10:43:27;;;;;;;22.10;15.20;;;;;;;;;;4996609;28;92531;-80
2022/11/14 10:46:15;;;;;;;29.52;14.45;;;;;;;;;;4994675;28;92629;-80
2022/11/14 10:49:01;;;;;;;15.85;13.95;;;;;;;;;;5020267;28;91643;-77
2022/11/14 10:51:52;;;;;;;20.55;15.38;;;;;;;;;;5018349;28;92129;-80
2022/11/14 10:54:44;;;;;;;19.40;14.27;;;;;;;;;;5014044;28;92114;-78
2022/11/14 10:57:29;;;;;;;21.35;15.32;;;;;;;;;;5012828;28;94501;-80
2022/11/14 11:00:15;;;;;;;21.35;15.45;;;;;;;;;;5016261;28;92461;-79
2022/11/14 11:03:00;;;;;;;19.58;14.73;;;;;;;;;;5006093;28;92374;-79
2022/11/14 11:05:50;;;;;;;18.40;15.05;;;;;;;;;;5001685;28;92595;-79
2022/11/14 11:11:51;;;;;;;25.70;15.25;;;;;;;;;;4997757;28;92461;-79
2022/11/14 11:14:37;;;;;;;17.17;14.83;;;;;;;;;;5000669;28;92442;-78
2022/11/14 11:17:23;;;;;;;19.55;14.43;;;;;;;;;;4995002;28;91647;-78
2022/11/14 11:20:30;;;;;;;19.50;14.93;;;;;;;;;;4974510;28;92396;-78
2022/11/14 11:23:14;;;;;;;18.65;16.25;;;;;;;;;;4976826;28;92677;-78
2022/11/14 11:26:04;;;;;;;32.75;16.40;;;;;;;;;;4987937;28;94901;-79
2022/11/14 11:29:01;;;;;;;19.48;15.63;;;;;;;;;;4975881;28;94109;-79
2022/11/14 11:31:51;;;;;;;17.42;13.35;;;;;;;;;;4977709;28;92631;-80
2022/11/14 11:34:38;;;;;;;21.15;16.10;;;;;;;;;;4994777;28;92437;-80
2022/11/14 11:37:25;;;;;;;19.15;16.25;;;;;;;;;;4995622;28;92517;-80
2022/11/14 11:40:22;;;;;;;21.00;16.52;;;;;;;;;;4999543;28;92673;-79
2022/11/14 11:43:25;;;;;;;23.88;17.33;;;;;;;;;;4996736;28;92505;-79
2022/11/14 11:46:44;;;;;;;22.90;16.33;;;;;;;;;;4996073;28;91913;-79
2022/11/14 11:49:33;;;;;;;19.50;16.48;;;;;;;;;;4994941;28;92432;-78
2022/11/14 11:52:25;;;;;;;22.60;17.52;;;;;;;;;;4995992;28;92396;-78
2022/11/14 11:55:10;;;;;;;20.50;17.38;;;;;;;;;;4991918;28;94782;-78
2022/11/14 11:58:01;;;;;;;21.38;17.52;;;;;;;;;;4994984;28;92439;-78
2022/11/14 12:00:50;;;;;;;21.92;16.73;;;;;;;;;;4995439;28;92441;-79
2022/11/14 12:03:35;;;;;;;27.88;17.45;;;;;;;;;;4995536;28;92393;-79
2022/11/14 12:06:26;;;;;;;21.58;17.55;;;;;;;;;;4995161;28;92439;-79
2022/11/14 12:09:18;;;;;;;22.05;17.00;;;;;;;;;;4994912;28;92767;-79
2022/11/14 12:12:12;;;;;;;28.87;16.50;;;;;;;;;;4994372;28;92308;-79
2022/11/14 12:14:57;;;;;;;18.30;15.57;;;;;;;;;;4994638;28;92485;-80
2022/11/14 12:17:54;;;;;;;19.77;16.67;;;;;;;;;;4995195;28;92905;-79
2022/11/14 12:20:51;;;;;;;20.35;15.82;;;;;;;;;;4990058;28;92400;-80
2022/11/14 12:23:48;;;;;;;24.33;16.60;;;;;;;;;;4974033;28;94854;-78
2022/11/14 12:26:41;;;;;;;20.85;16.13;;;;;;;;;;4972723;28;92692;-78
2022/11/14 12:29:49;;;;;;;23.63;19.02;;;;;;;;;;4975167;28;92859;-76
2022/11/14 12:32:42;;;;;;;24.08;17.45;;;;;;;;;;4973338;28;92692;-79
2022/11/14 12:35:31;;;;;;;24.60;20.02;;;;;;;;;;4973977;28;93004;-79
2022/11/14 12:38:18;;;;;;;22.52;18.83;;;;;;;;;;4975030;28;92330;-79
2022/11/14 12:41:03;;;;;;;24.30;19.23;;;;;;;;;;4974037;28;92691;-79
2022/11/14 12:43:48;;;;;;;22.67;17.33;;;;;;;;;;4974954;28;92021;-79
2022/11/14 12:46:59;;;;;;;25.83;20.83;;;;;;;;;;4975291;28;92338;-79
2022/11/14 12:49:48;;;;;;;26.60;19.52;;;;;;;;;;4993095;28;92618;-79
2022/11/14 12:52:39;;;;;;;22.27;19.63;;;;;;;;;;4993238;28;94769;-79
2022/11/14 12:55:23;;;;;;;30.27;20.88;;;;;;;;;;4995528;28;93959;-79
2022/11/14 12:58:09;;;;;;;31.80;22.85;;;;;;;;;;4993078;28;92403;-80
2022/11/14 13:01:09;;;;;;;26.92;22.83;;;;;;;;;;4995107;28;92604;-79
2022/11/14 13:04:06;;;;;;;26.52;22.38;;;;;;;;;;4993073;28;92846;-79
2022/11/14 13:07:12;;;;;;;24.83;21.27;;;;;;;;;;5009084;28;92216;-78
2022/11/14 13:10:02;;;;;;;27.40;22.38;;;;;;;;;;5011992;28;92202;-80
2022/11/14 13:22:33;;;;;;;33.80;25.05;;;;;;;;;;4984553;28;95527;-78
2022/11/14 13:25:21;;;;;;;29.48;23.35;;;;;;;;;;4990282;28;93861;-78
2022/11/14 13:28:25;;;;;;;29.83;22.85;;;;;;;;;;4992163;28;94361;-79
2022/11/14 13:31:15;;;;;;;31.65;23.58;;;;;;;;;;4991805;28;92453;-79
2022/11/14 13:34:20;;;;;;;32.90;22.52;;;;;;;;;;4986585;28;94105;-80
2022/11/14 13:37:26;;;;;;;30.48;23.35;;;;;;;;;;4989757;28;94699;-79
2022/11/14 13:40:20;;;;;;;33.28;24.27;;;;;;;;;;4979109;28;93937;-79
2022/11/14 13:43:08;;;;;;;29.48;22.77;;;;;;;;;;4984288;28;93101;-79
2022/11/14 13:46:00;;;;;;;32.85;24.27;;;;;;;;;;4974937;28;92680;-79
2022/11/14 13:48:51;;;;;;;38.17;25.02;;;;;;;;;;4994563;28;93749;-79
2022/11/14 13:51:37;;;;;;;35.47;24.05;;;;;;;;;;4984269;28;95755;-78
2022/11/14 13:54:28;;;;;;;33.08;22.85;;;;;;;;;;4995411;28;92896;-80
2022/11/14 13:57:26;;;;;;;30.88;22.90;;;;;;;;;;4996908;28;93278;-82
2022/11/14 14:00:17;;;;;;;31.50;24.25;;;;;;;;;;4982027;28;92628;-80
2022/11/14 14:03:40;;;;;;;32.72;23.95;;;;;;;;;;4993882;28;92398;-78
2022/11/14 14:06:31;;;;;;;32.97;24.48;;;;;;;;;;4905418;28;92619;-78
2022/11/14 14:09:37;;;;;;;33.35;24.88;;;;;;;;;;4976871;28;92734;-78
2022/11/14 14:12:26;;;;;;;33.15;24.95;;;;;;;;;;4993110;28;91924;-78
2022/11/14 14:15:37;;;;;;;32.30;24.70;;;;;;;;;;4997992;28;92549;-77
2022/11/14 14:18:39;;;;;;;34.75;24.63;;;;;;;;;;4997907;28;93143;-80
2022/11/14 14:21:24;;;;;;;31.98;23.63;;;;;;;;;;4992404;28;95439;-80
2022/11/14 14:24:28;;;;;;;34.40;24.38;;;;;;;;;;4996078;28;92497;-78
2022/11/14 14:27:19;;;;;;;35.85;24.40;;;;;;;;;;4991062;28;94122;-79
2022/11/14 14:30:15;;;;;;;38.72;26.15;;;;;;;;;;4994646;28;93144;-79
2022/11/14 14:33:06;;;;;;;31.90;23.55;;;;;;;;;;4996024;28;92572;-78
2022/11/14 14:35:52;;;;;;;38.85;26.98;;;;;;;;;;4994406;28;92287;-78
2022/11/14 14:38:38;;;;;;;36.38;27.38;;;;;;;;;;4999185;28;92515;-77
2022/11/14 14:41:22;;;;;;;47.05;31.50;;;;;;;;;;4996780;28;91680;-77
2022/11/14 14:44:17;;;;;;;40.70;28.85;;;;;;;;;;4995267;28;92408;-78
2022/11/14 14:47:16;;;;;;;49.90;30.73;;;;;;;;;;4993629;28;92583;-77
2022/11/14 14:50:03;;;;;;;46.42;27.42;;;;;;;;;;4992474;28;94872;-79
2022/11/14 14:53:01;;;;;;;44.03;28.58;;;;;;;;;;4996415;28;94952;-79
2022/11/14 14:55:57;;;;;;;47.28;29.92;;;;;;;;;;4981005;28;93085;-81
2022/11/14 14:58:42;;;;;;;45.53;31.70;;;;;;;;;;4986965;28;92748;-77
2022/11/14 15:01:35;;;;;;;39.17;28.38;;;;;;;;;;4995140;28;92557;-80
2022/11/14 15:04:20;;;;;;;44.70;31.15;;;;;;;;;;4986087;28;92862;-77
2022/11/14 15:07:19;;;;;;;48.58;31.48;;;;;;;;;;4978798;28;92520;-77
2022/11/14 15:10:06;;;;;;;37.40;25.02;;;;;;;;;;4989752;28;93991;-77
2022/11/14 15:12:54;;;;;;;38.08;26.70;;;;;;;;;;4992520;28;92434;-77
2022/11/14 15:15:39;;;;;;;44.22;30.80;;;;;;;;;;4992748;28;92489;-79
2022/11/14 15:18:30;;;;;;;46.00;29.63;;;;;;;;;;4981491;28;95104;-78
2022/11/14 15:21:20;;;;;;;44.33;30.10;;;;;;;;;;4986093;28;94336;-78
2022/11/14 15:24:12;;;;;;;42.58;29.20;;;;;;;;;;4979426;28;92554;-78
2022/11/14 15:26:57;;;;;;;40.63;28.73;;;;;;;;;;4992820;28;92651;-79
2022/11/14 15:29:52;;;;;;;47.60;31.30;;;;;;;;;;4987188;28;94323;-78
2022/11/14 15:32:46;;;;;;;43.67;29.90;;;;;;;;;;4987777;28;92844;-78
2022/11/14 15:35:36;;;;;;;43.83;29.50;;;;;;;;;;4973694;28;92381;-78
2022/11/14 15:38:21;;;;;;;43.40;30.58;;;;;;;;;;4978566;28;92408;-79
2022/11/14 15:41:28;;;;;;;48.90;31.10;;;;;;;;;;4972820;28;92698;-79
2022/11/14 15:44:31;;;;;;;47.67;30.20;;;;;;;;;;4994012;28;92413;-79
2022/11/14 15:47:19;;;;;;;47.58;30.15;;;;;;;;;;4991325;28;94864;-79
2022/11/14 15:50:04;;;;;;;44.95;30.55;;;;;;;;;;4975609;28;94960;-80
2022/11/14 15:53:02;;;;;;;41.05;28.33;;;;;;;;;;4991302;28;92987;-79
2022/11/14 15:55:46;;;;;;;42.78;28.48;;;;;;;;;;4994395;28;94414;-80
2022/11/14 15:58:32;;;;;;;44.42;29.08;;;;;;;;;;4996002;28;92404;-81
2022/11/14 16:01:21;;;;;;;41.22;27.73;;;;;;;;;;4993150;28;92519;-80
2022/11/14 16:04:08;;;;;;;38.50;27.95;;;;;;;;;;4993812;28;92670;-82
2022/11/14 16:06:53;;;;;;;39.03;25.80;;;;;;;;;;4995395;28;92016;-76
2022/11/14 16:09:39;;;;;;;41.03;28.80;;;;;;;;;;4983290;28;92361;-76
2022/11/14 16:12:27;;;;;;;44.53;27.05;;;;;;;;;;4991675;28;92553;-79
2022/11/14 16:15:12;;;;;;;40.08;27.13;;;;;;;;;;4993135;28;94782;-79
2022/11/14 16:17:57;;;;;;;42.38;27.30;;;;;;;;;;4993112;28;94705;-80
2022/11/14 16:20:43;;;;;;;40.97;27.55;;;;;;;;;;4993967;28;93612;-79
2022/11/14 16:23:28;;;;;;;43.15;29.75;;;;;;;;;;4985466;28;92459;-80
2022/11/14 16:26:15;;;;;;;46.40;30.48;;;;;;;;;;4991622;28;92709;-79
2022/11/14 16:29:02;;;;;;;46.75;30.13;;;;;;;;;;4992397;28;92942;-81
2022/11/14 16:31:47;;;;;;;45.55;30.75;;;;;;;;;;4990683;28;94654;-80
2022/11/14 16:34:32;;;;;;;40.20;29.00;;;;;;;;;;4984841;28;93391;-79